createdAt,value
2018-04-17T00:00:46.405Z,99.90
2018-04-17T00:03:13.950Z,99.90
2018-04-17T00:05:41.582Z,99.90
2018-04-17T00:08:09.169Z,99.90
2018-04-17T00:10:36.743Z,99.90
2018-04-17T00:13:05.111Z,99.90
2018-04-17T00:15:32.717Z,99.90
2018-04-17T00:18:00.350Z,99.90
2018-04-17T00:20:28.707Z,99.90
2018-04-17T00:22:56.294Z,99.90
2018-04-17T00:25:23.865Z,99.90
2018-04-17T00:27:51.510Z,99.90
2018-04-17T00:30:19.883Z,99.90
2018-04-17T00:32:48.230Z,99.90
2018-04-17T00:35:15.861Z,99.90
2018-04-17T00:37:43.406Z,99.90
2018-04-17T00:40:11.011Z,99.90
2018-04-17T00:42:38.605Z,99.90
2018-04-17T00:45:06.964Z,99.90
2018-04-17T00:47:34.537Z,99.90
2018-04-17T00:50:02.905Z,99.90
2018-04-17T00:52:30.456Z,99.90
2018-04-17T00:54:58.086Z,99.90
2018-04-17T00:57:25.635Z,99.90
2018-04-17T00:59:53.233Z,99.90
2018-04-17T01:02:20.853Z,99.90
2018-04-17T01:04:48.449Z,99.90
2018-04-17T01:07:16.109Z,99.90
2018-04-17T01:09:43.726Z,99.90
2018-04-17T01:12:11.296Z,99.90
2018-04-17T01:14:38.933Z,99.90
2018-04-17T01:17:07.317Z,99.90
2018-04-17T01:19:34.938Z,99.90
2018-04-17T01:22:02.571Z,99.90
2018-04-17T01:24:30.182Z,99.90
2018-04-17T01:26:58.605Z,99.90
2018-04-17T01:29:26.309Z,99.90
2018-04-17T01:31:53.917Z,99.90
2018-04-17T01:34:21.528Z,99.90
2018-04-17T01:36:49.197Z,99.90
2018-04-17T01:51:06.234Z,99.90
2018-04-17T01:53:33.809Z,99.90
2018-04-17T01:56:01.408Z,99.90
2018-04-17T01:58:29.023Z,99.90
2018-04-17T02:00:56.653Z,99.90
2018-04-17T02:03:25.061Z,99.90
2018-04-17T02:05:52.650Z,99.90
2018-04-17T02:08:20.193Z,99.90
2018-04-17T02:10:47.786Z,99.90
2018-04-17T02:13:15.381Z,99.90
2018-04-17T02:15:42.941Z,99.90
2018-04-17T02:18:10.544Z,99.90
2018-04-17T02:20:38.128Z,99.90
2018-04-17T02:23:05.741Z,99.90
2018-04-17T02:25:33.826Z,99.90
2018-04-17T02:28:01.448Z,99.90
2018-04-17T02:30:29.006Z,99.90
2018-04-17T02:32:56.639Z,99.90
2018-04-17T02:35:24.269Z,99.90
2018-04-17T02:37:51.865Z,99.90
2018-04-17T02:40:19.500Z,99.90
2018-04-17T02:42:47.117Z,99.90
2018-04-17T02:45:14.706Z,99.90
2018-04-17T02:47:42.278Z,99.90
2018-04-17T02:50:09.887Z,99.90
2018-04-17T02:52:38.247Z,99.90
2018-04-17T02:55:05.849Z,99.90
2018-04-17T02:57:33.423Z,99.90
2018-04-17T03:00:01.019Z,99.90
2018-04-17T03:02:28.566Z,99.90
2018-04-17T03:04:56.200Z,99.90
2018-04-17T03:07:23.796Z,99.90
2018-04-17T03:09:52.180Z,99.90
2018-04-17T03:12:19.830Z,99.90
2018-04-17T03:14:47.391Z,99.90
2018-04-17T03:17:14.985Z,99.90
2018-04-17T03:19:42.614Z,99.90
2018-04-17T03:22:10.237Z,99.90
2018-04-17T03:24:37.881Z,99.90
2018-04-17T03:27:05.510Z,99.90
2018-04-17T03:32:07.754Z,99.90
2018-04-17T03:34:35.349Z,99.90
2018-04-17T03:37:02.926Z,99.90
2018-04-17T03:39:31.304Z,99.90
2018-04-17T03:41:58.882Z,99.90
2018-04-17T03:44:26.501Z,99.90
2018-04-17T03:46:54.095Z,99.90
2018-04-17T03:49:21.737Z,99.90
2018-04-17T03:51:50.078Z,99.90
2018-04-17T03:54:17.683Z,99.90
2018-04-17T03:56:46.097Z,99.90
2018-04-17T03:59:13.717Z,99.90
2018-04-17T04:01:42.057Z,99.90
2018-04-17T04:04:09.662Z,99.90
2018-04-17T04:06:38.009Z,99.90
2018-04-17T04:09:06.416Z,99.90
2018-04-17T04:11:34.793Z,99.90
2018-04-17T04:14:03.133Z,99.90
2018-04-17T04:16:42.676Z,99.90
2018-04-17T04:19:22.342Z,99.90
2018-04-17T04:22:02.701Z,99.90
2018-04-17T04:24:42.094Z,99.90
2018-04-17T04:27:09.694Z,99.90
2018-04-17T04:29:37.269Z,99.90
2018-04-17T04:32:05.671Z,99.90
2018-04-17T04:34:33.228Z,99.90
2018-04-17T04:37:00.834Z,99.90
2018-04-17T04:39:28.426Z,99.90
2018-04-17T04:41:56.760Z,99.90
2018-04-17T04:44:24.367Z,99.90
2018-04-17T04:46:52.708Z,99.90
2018-04-17T04:49:20.355Z,99.90
2018-04-17T04:51:48.027Z,99.90
2018-04-17T04:54:15.750Z,99.90
2018-04-17T04:56:43.330Z,99.90
2018-04-17T04:59:10.969Z,99.90
2018-04-17T05:01:38.554Z,99.90
2018-04-17T05:04:06.157Z,99.90
2018-04-17T05:06:34.597Z,99.90
2018-04-17T05:09:02.321Z,99.90
2018-04-17T05:11:29.949Z,99.90
2018-04-17T05:13:57.557Z,99.90
2018-04-17T05:16:25.137Z,99.90
2018-04-17T05:18:52.759Z,99.90
2018-04-17T05:21:21.106Z,99.90
2018-04-17T05:23:48.732Z,99.90
2018-04-17T05:26:16.281Z,99.90
2018-04-17T05:28:43.854Z,99.90
2018-04-17T05:31:11.442Z,99.90
2018-04-17T05:33:39.036Z,99.90
2018-04-17T05:36:07.420Z,99.90
2018-04-17T05:38:35.769Z,99.90
2018-04-17T05:41:03.409Z,99.90
2018-04-17T05:43:30.989Z,99.90
2018-04-17T05:45:58.599Z,99.90
2018-04-17T05:48:26.255Z,99.90
2018-04-17T05:50:53.797Z,99.90
2018-04-17T05:53:22.165Z,99.90
2018-04-17T05:55:50.594Z,99.90
2018-04-17T05:58:18.926Z,99.90
2018-04-17T06:00:47.246Z,99.90
2018-04-17T06:03:14.856Z,99.90
2018-04-17T06:05:42.459Z,99.90
2018-04-17T06:08:10.085Z,99.90
2018-04-17T06:10:38.450Z,99.90
2018-04-17T06:13:06.839Z,99.90
2018-04-17T06:15:35.225Z,99.90
2018-04-17T06:18:03.591Z,99.90
2018-04-17T06:20:31.975Z,99.90
2018-04-17T06:23:00.353Z,99.90
2018-04-17T06:25:28.732Z,99.90
2018-04-17T06:27:57.092Z,99.90
2018-04-17T06:30:24.708Z,99.90
2018-04-17T06:32:52.302Z,99.90
2018-04-17T06:35:19.893Z,99.90
2018-04-17T06:37:48.273Z,99.90
2018-04-17T06:40:16.704Z,99.90
2018-04-17T06:42:44.317Z,99.90
2018-04-17T06:45:12.720Z,99.90
2018-04-17T06:47:40.381Z,99.90
2018-04-17T06:50:07.933Z,99.90
2018-04-17T06:52:35.563Z,99.90
2018-04-17T06:55:03.140Z,99.90
2018-04-17T06:57:31.537Z,99.90
2018-04-17T06:59:59.126Z,99.90
2018-04-17T07:02:26.747Z,99.90
2018-04-17T07:04:54.355Z,99.90
2018-04-17T07:07:21.965Z,99.90
2018-04-17T07:09:49.518Z,99.90
2018-04-17T07:12:17.946Z,99.90
2018-04-17T07:14:45.594Z,99.90
2018-04-17T07:17:13.176Z,99.90
2018-04-17T07:19:40.826Z,99.90
2018-04-17T07:22:08.415Z,99.90
2018-04-17T07:24:36.006Z,99.90
2018-04-17T07:27:04.374Z,99.90
2018-04-17T07:29:32.719Z,99.90
2018-04-17T07:32:00.305Z,99.90
2018-04-17T07:34:28.691Z,99.90
2018-04-17T07:36:57.045Z,99.90
2018-04-17T07:39:24.675Z,99.90
2018-04-17T07:41:52.243Z,99.90
2018-04-17T07:44:19.808Z,99.60
2018-04-17T07:49:48.997Z,92.00
2018-04-17T07:52:16.529Z,85.70
2018-04-17T07:54:44.073Z,77.60
2018-04-17T07:57:11.589Z,73.30
2018-04-17T07:59:39.213Z,74.10
2018-04-17T08:02:06.799Z,69.20
2018-04-17T08:04:34.414Z,67.80
2018-04-17T08:07:02.002Z,57.40
2018-04-17T08:09:29.621Z,54.70
2018-04-17T08:12:12.569Z,54.50
2018-04-17T08:14:40.230Z,52.80
2018-04-17T08:17:08.590Z,49.00
2018-04-17T08:19:36.199Z,48.90
2018-04-17T08:22:03.809Z,46.50
2018-04-17T08:24:31.364Z,44.00
2018-04-17T08:26:59.006Z,43.80
2018-04-17T08:29:26.621Z,44.70
2018-04-17T08:31:54.187Z,42.60
2018-04-17T08:34:21.763Z,40.90
2018-04-17T08:36:49.450Z,40.60
2018-04-17T08:39:16.962Z,43.10
2018-04-17T08:41:44.548Z,39.70
2018-04-17T08:44:12.948Z,40.10
2018-04-17T08:46:40.491Z,40.10
2018-04-17T08:49:08.069Z,38.00
2018-04-17T08:51:35.644Z,37.20
2018-04-17T08:54:03.230Z,39.60
2018-04-17T08:56:30.790Z,39.00
2018-04-17T08:58:58.394Z,39.10
2018-04-17T09:01:25.957Z,37.60
2018-04-17T09:03:53.529Z,38.00
2018-04-17T09:06:21.106Z,38.40
2018-04-17T09:11:22.539Z,39.00
2018-04-17T09:13:50.126Z,39.70
2018-04-17T09:16:17.732Z,38.20
2018-04-17T09:18:45.338Z,38.10
2018-04-17T09:21:12.979Z,40.10
2018-04-17T09:23:40.582Z,37.10
2018-04-17T09:26:08.183Z,38.70
2018-04-17T09:28:35.779Z,39.00
2018-04-17T09:31:03.358Z,37.70
2018-04-17T09:33:31.722Z,40.20
2018-04-17T09:35:59.331Z,39.90
2018-04-17T09:38:26.888Z,39.80
2018-04-17T09:40:54.506Z,39.50
2018-04-17T09:43:22.129Z,38.50
2018-04-17T09:45:50.511Z,38.10
2018-04-17T09:48:18.114Z,38.10
2018-04-17T09:50:45.688Z,38.60
2018-04-17T09:53:14.026Z,38.30
2018-04-17T09:55:41.590Z,38.40
2018-04-17T09:58:09.229Z,38.80
2018-04-17T10:00:42.502Z,39.10
2018-04-17T10:03:10.111Z,39.10
2018-04-17T10:05:37.727Z,37.90
2018-04-17T10:08:05.363Z,36.90
2018-04-17T10:10:33.719Z,36.60
2018-04-17T10:13:01.304Z,36.60
2018-04-17T10:15:29.628Z,39.70
2018-04-17T10:17:57.243Z,39.60
2018-04-17T10:20:25.629Z,39.30
2018-04-17T10:22:53.219Z,39.10
2018-04-17T10:25:20.837Z,37.20
2018-04-17T10:27:49.198Z,36.20
2018-04-17T10:30:16.833Z,36.20
2018-04-17T10:32:44.390Z,38.40
2018-04-17T10:35:11.988Z,38.00
2018-04-17T10:37:40.375Z,37.20
2018-04-17T10:40:08.714Z,36.90
2018-04-17T10:42:36.330Z,36.90
2018-04-17T10:45:03.900Z,35.70
2018-04-17T10:47:31.546Z,38.70
2018-04-17T10:49:59.165Z,36.60
2018-04-17T10:52:26.761Z,37.10
2018-04-17T10:54:55.104Z,35.70
2018-04-17T10:57:22.741Z,36.40
2018-04-17T10:59:50.330Z,34.00
2018-04-17T11:02:17.937Z,35.90
2018-04-17T11:04:45.508Z,35.30
2018-04-17T11:07:15.739Z,35.40
2018-04-17T11:09:58.840Z,34.50
2018-04-17T11:12:26.545Z,34.60
2018-04-17T11:14:54.139Z,36.00
2018-04-17T11:17:22.491Z,37.00
2018-04-17T11:19:50.103Z,36.80
2018-04-17T11:22:17.733Z,36.80
2018-04-17T11:24:46.053Z,36.00
2018-04-17T11:27:13.685Z,36.00
2018-04-17T11:29:42.052Z,36.90
2018-04-17T11:32:10.413Z,35.80
2018-04-17T11:34:38.047Z,35.80
2018-04-17T11:37:06.351Z,36.10
2018-04-17T11:39:33.918Z,36.00
2018-04-17T11:42:01.519Z,34.30
2018-04-17T11:44:29.125Z,35.20
2018-04-17T11:46:56.758Z,34.80
2018-04-17T11:49:24.329Z,35.10
2018-04-17T11:51:51.887Z,35.00
2018-04-17T11:54:19.435Z,37.00
2018-04-17T11:56:47.061Z,36.80
2018-04-17T11:59:14.651Z,35.60
2018-04-17T12:01:42.193Z,36.70
2018-04-17T12:04:09.789Z,34.90
2018-04-17T12:06:39.366Z,34.80
2018-04-17T12:09:06.957Z,34.10
2018-04-17T12:11:34.597Z,37.20
2018-04-17T12:14:02.234Z,37.30
2018-04-17T12:16:29.814Z,37.20
2018-04-17T12:18:57.446Z,37.80
2018-04-17T12:21:25.029Z,38.30
2018-04-17T12:23:52.610Z,34.50
2018-04-17T12:26:20.183Z,35.10
2018-04-17T12:28:47.756Z,36.30
2018-04-17T12:31:15.363Z,35.30
2018-04-17T12:33:42.908Z,37.70
2018-04-17T12:36:10.552Z,37.60
2018-04-17T12:38:38.925Z,36.50
2018-04-17T12:41:07.302Z,36.10
2018-04-17T12:43:35.685Z,35.70
2018-04-17T12:46:04.059Z,35.70
2018-04-17T12:48:31.668Z,35.70
2018-04-17T12:50:59.321Z,36.10
2018-04-17T12:53:26.931Z,33.70
2018-04-17T12:55:54.541Z,34.90
2018-04-17T12:58:22.143Z,37.00
2018-04-17T13:00:49.783Z,36.80
2018-04-17T13:03:17.343Z,37.10
2018-04-17T13:05:44.964Z,37.60
2018-04-17T13:08:13.324Z,36.90
2018-04-17T13:10:41.646Z,34.80
2018-04-17T13:13:09.252Z,34.70
2018-04-17T13:15:36.826Z,35.00
2018-04-17T13:18:05.241Z,36.60
2018-04-17T13:20:32.855Z,36.60
2018-04-17T13:23:00.429Z,36.50
2018-04-17T13:25:28.765Z,35.70
2018-04-17T13:27:58.042Z,35.60
2018-04-17T13:30:25.726Z,36.60
2018-04-17T13:32:53.308Z,35.20
2018-04-17T13:35:20.910Z,35.00
2018-04-17T13:37:48.460Z,35.80
2018-04-17T13:40:16.015Z,39.70
2018-04-17T13:42:43.668Z,36.80
2018-04-17T13:45:11.995Z,33.40
2018-04-17T13:47:39.583Z,33.30
2018-04-17T13:50:07.145Z,35.50
2018-04-17T13:52:34.749Z,35.70
2018-04-17T13:55:02.384Z,36.80
2018-04-17T13:57:30.758Z,38.30
2018-04-17T13:59:59.169Z,37.80
2018-04-17T14:02:26.745Z,37.70
2018-04-17T14:04:54.349Z,38.10
2018-04-17T14:07:22.735Z,38.30
2018-04-17T14:09:51.107Z,36.40
2018-04-17T14:12:18.639Z,36.30
2018-04-17T14:14:46.249Z,36.80
2018-04-17T14:17:13.834Z,36.20
2018-04-17T14:19:41.442Z,37.10
2018-04-17T14:22:08.994Z,36.60
2018-04-17T14:24:36.618Z,34.60
2018-04-17T14:27:04.223Z,37.20
2018-04-17T14:29:31.869Z,37.40
2018-04-17T14:31:59.457Z,35.80
2018-04-17T14:34:27.825Z,37.30
2018-04-17T14:37:00.153Z,37.60
2018-04-17T14:39:27.722Z,37.30
2018-04-17T14:42:00.977Z,37.50
2018-04-17T14:44:28.526Z,38.20
2018-04-17T14:46:56.911Z,36.90
2018-04-17T14:49:25.275Z,36.80
2018-04-17T14:51:52.886Z,36.80
2018-04-17T14:54:20.577Z,37.90
2018-04-17T14:56:48.155Z,38.80
2018-04-17T14:59:16.545Z,38.30
2018-04-17T15:01:45.533Z,38.00
2018-04-17T15:04:13.849Z,36.60
2018-04-17T15:06:41.457Z,36.60
2018-04-17T15:09:09.037Z,37.70
2018-04-17T15:11:52.529Z,37.70
2018-04-17T15:14:20.140Z,37.70
2018-04-17T15:16:47.686Z,37.30
2018-04-17T15:19:16.066Z,37.50
2018-04-17T15:21:43.829Z,37.30
2018-04-17T15:24:12.187Z,38.00
2018-04-17T15:26:39.831Z,37.90
2018-04-17T15:29:07.458Z,37.20
2018-04-17T15:31:35.027Z,39.00
2018-04-17T15:34:02.637Z,38.90
2018-04-17T15:36:30.965Z,40.50
2018-04-17T15:38:58.538Z,39.80
2018-04-17T15:41:26.161Z,40.00
2018-04-17T15:43:53.716Z,40.00
2018-04-17T15:46:21.326Z,38.40
2018-04-17T15:48:48.914Z,38.70
2018-04-17T16:15:45.761Z,39.60
2018-04-17T16:18:13.327Z,40.00
2018-04-17T16:20:40.961Z,40.50
2018-04-17T16:23:08.550Z,39.90
2018-04-17T16:25:36.184Z,40.10
2018-04-17T16:28:03.725Z,40.90
2018-04-17T16:30:32.107Z,40.10
2018-04-17T16:33:00.483Z,39.80
2018-04-17T16:35:28.805Z,40.60
2018-04-17T16:37:56.396Z,39.90
2018-04-17T16:40:23.945Z,40.90
2018-04-17T16:42:51.562Z,41.30
2018-04-17T16:45:19.182Z,41.50
2018-04-17T16:47:47.521Z,42.10
2018-04-17T16:50:15.076Z,42.00
2018-04-17T16:52:42.625Z,42.50
2018-04-17T16:55:10.242Z,43.80
2018-04-17T16:57:37.811Z,43.50
2018-04-17T17:00:06.217Z,44.70
2018-04-17T17:02:33.798Z,44.70
2018-04-17T17:07:35.301Z,45.10
2018-04-17T17:10:02.926Z,45.80
2018-04-17T17:12:31.263Z,46.20
2018-04-17T17:15:10.438Z,46.10
2018-04-17T17:17:38.008Z,45.90
2018-04-17T17:20:05.592Z,46.50
2018-04-17T17:22:33.266Z,46.80
2018-04-17T17:25:01.669Z,48.20
2018-04-17T17:27:29.253Z,48.10
2018-04-17T17:29:56.836Z,49.00
2018-04-17T17:32:24.463Z,49.10
2018-04-17T17:34:52.035Z,49.40
2018-04-17T17:37:28.219Z,50.40
2018-04-17T17:40:01.903Z,50.30
2018-04-17T17:42:29.530Z,51.30
2018-04-17T17:44:57.865Z,52.10
2018-04-17T17:47:46.268Z,52.10
2018-04-17T17:50:20.598Z,53.30
2018-04-17T17:52:48.158Z,54.10
2018-04-17T17:55:34.276Z,55.20
2018-04-17T17:58:01.854Z,55.60
2018-04-17T18:00:29.444Z,56.50
2018-04-17T18:02:57.773Z,58.20
2018-04-17T18:11:12.121Z,60.10
2018-04-17T18:13:39.692Z,61.00
2018-04-17T18:16:07.305Z,62.20
2018-04-17T18:18:34.931Z,63.80
2018-04-17T18:21:02.505Z,65.90
2018-04-17T18:23:43.045Z,68.10
2018-04-17T18:26:10.631Z,70.80
2018-04-17T18:28:48.464Z,75.20
2018-04-17T18:31:16.786Z,85.10
2018-04-17T18:33:44.352Z,85.10
2018-04-17T18:36:11.966Z,89.50
2018-04-17T18:41:34.897Z,95.80
2018-04-17T18:44:12.435Z,95.80
2018-04-17T18:46:40.009Z,97.30
2018-04-17T18:49:07.574Z,97.80
2018-04-17T18:51:35.171Z,99.50
2018-04-17T18:54:02.733Z,99.90
2018-04-17T18:56:30.384Z,99.90
2018-04-17T18:58:57.962Z,99.90
2018-04-17T19:01:25.582Z,99.90
2018-04-17T19:03:53.147Z,99.90
2018-04-17T19:06:20.771Z,99.90
2018-04-17T19:08:49.129Z,99.90
2018-04-17T19:11:16.740Z,99.90
2018-04-17T19:13:44.371Z,99.90
2018-04-17T19:16:11.994Z,99.90
2018-04-17T19:18:39.586Z,99.90
2018-04-17T19:21:07.978Z,99.90
2018-04-17T19:23:35.610Z,99.90
2018-04-17T19:26:03.173Z,99.90
2018-04-17T19:28:31.530Z,99.90
2018-04-17T19:30:59.171Z,99.90
2018-04-17T19:33:26.814Z,99.90
2018-04-17T19:35:54.459Z,99.90
2018-04-17T19:38:22.075Z,99.90
2018-04-17T19:40:49.956Z,99.90
2018-04-17T19:43:17.562Z,99.90
2018-04-17T19:45:56.319Z,99.90
2018-04-17T19:48:23.891Z,99.90
2018-04-17T19:50:51.544Z,99.90
2018-04-17T19:53:19.142Z,99.90
2018-04-17T19:55:47.526Z,99.90
2018-04-17T19:58:15.147Z,99.90
2018-04-17T20:00:42.761Z,99.90
2018-04-17T20:03:10.398Z,99.90
2018-04-17T20:05:37.990Z,99.90
2018-04-17T20:08:05.613Z,99.90
2018-04-17T20:10:33.996Z,99.90
2018-04-17T20:13:02.390Z,99.90
2018-04-17T20:15:29.938Z,99.90
2018-04-17T20:17:58.346Z,99.90
2018-04-17T20:20:25.942Z,99.90
2018-04-17T20:22:53.563Z,99.90
2018-04-17T20:25:21.136Z,99.90
2018-04-17T20:27:48.728Z,99.90
2018-04-17T20:30:16.320Z,99.90
2018-04-17T20:32:44.605Z,99.90
2018-04-17T20:35:12.203Z,99.90
2018-04-17T20:37:39.804Z,99.90
2018-04-17T20:40:08.187Z,99.90
2018-04-17T20:42:36.513Z,99.90
2018-04-17T20:45:04.092Z,99.90
2018-04-17T20:47:31.703Z,99.90
2018-04-17T20:49:59.300Z,99.90
2018-04-17T20:52:26.863Z,99.90
2018-04-17T20:54:54.465Z,99.90
2018-04-17T20:57:22.858Z,99.90
2018-04-17T20:59:50.437Z,99.90
2018-04-17T21:02:18.030Z,99.90
2018-04-17T21:04:45.650Z,99.90
2018-04-17T21:07:13.260Z,99.90
2018-04-17T21:09:40.821Z,99.90
2018-04-17T21:12:08.441Z,99.90
2018-04-17T21:14:36.014Z,99.90
2018-04-17T21:17:03.615Z,99.90
2018-04-17T21:19:31.186Z,99.90
2018-04-17T21:21:59.531Z,99.90
2018-04-17T21:24:27.145Z,99.90
2018-04-17T21:26:54.693Z,99.90
2018-04-17T21:29:22.290Z,99.90
2018-04-17T21:31:49.858Z,99.90
2018-04-17T21:34:17.456Z,99.90
2018-04-17T21:36:45.816Z,99.90
2018-04-17T21:39:13.416Z,99.90
2018-04-17T21:41:40.986Z,99.90
2018-04-17T21:44:08.612Z,99.90
2018-04-17T21:46:37.000Z,99.90
2018-04-17T21:49:05.400Z,99.90
2018-04-17T21:51:32.951Z,99.90
2018-04-17T21:54:00.561Z,99.90
2018-04-17T21:56:28.205Z,99.90
2018-04-17T21:58:55.798Z,99.90
2018-04-17T22:01:29.342Z,99.90
2018-04-17T22:03:57.357Z,99.90
2018-04-17T22:06:24.937Z,99.90
2018-04-17T22:08:53.294Z,99.90
2018-04-17T22:11:20.867Z,99.90
2018-04-17T22:13:48.461Z,99.90
2018-04-17T22:16:16.036Z,99.90
2018-04-17T22:18:43.614Z,99.90
2018-04-17T22:21:11.198Z,99.90
2018-04-17T22:23:38.802Z,99.90
2018-04-17T22:26:06.410Z,99.90
2018-04-17T22:28:33.989Z,99.90
2018-04-17T22:31:01.637Z,99.90
2018-04-17T22:33:29.212Z,99.90
2018-04-17T22:35:57.566Z,99.90
2018-04-17T22:38:25.180Z,99.90
2018-04-17T22:40:52.734Z,99.90
2018-04-17T22:43:20.358Z,99.90
2018-04-17T22:45:47.906Z,99.90
2018-04-17T22:48:15.529Z,99.90
2018-04-17T22:50:43.113Z,99.90
2018-04-17T22:53:10.691Z,99.90
2018-04-17T22:55:38.250Z,99.90
2018-04-17T22:58:05.860Z,99.90
2018-04-17T23:00:33.406Z,99.90
2018-04-17T23:03:01.797Z,99.90
2018-04-17T23:05:29.345Z,99.90
2018-04-17T23:07:56.942Z,99.90
2018-04-17T23:10:24.514Z,99.90
2018-04-17T23:12:52.086Z,99.90
2018-04-17T23:15:19.689Z,99.90
2018-04-17T23:17:47.283Z,99.90
2018-04-17T23:20:14.900Z,99.90
2018-04-17T23:22:42.482Z,99.90
2018-04-17T23:25:10.068Z,99.90
2018-04-17T23:27:37.700Z,99.90
2018-04-17T23:30:05.253Z,99.90
2018-04-17T23:32:32.824Z,99.90
2018-04-17T23:35:01.221Z,99.90
2018-04-17T23:37:28.851Z,99.90
2018-04-17T23:39:56.497Z,99.90
2018-04-17T23:42:24.868Z,99.90
2018-04-17T23:44:53.215Z,99.90
2018-04-17T23:47:20.821Z,99.90
2018-04-17T23:49:49.194Z,99.90
2018-04-17T23:52:17.554Z,99.90
2018-04-17T23:54:45.091Z,99.90
2018-04-17T23:57:12.653Z,99.90
2018-04-17T23:59:40.264Z,99.90
